sensor_id;sensor_type;location;lat;lon;timestamp;pressure;altitude;pressure_sealevel;temperature;humidity
60087;BME280;45960;53.630;55.972;2023-07-28T00:00:44;99489.91;;;22.90;62.62
60087;BME280;45960;53.630;55.972;2023-07-28T00:01:45;99478.38;;;22.88;62.65
60087;BME280;45960;53.630;55.972;2023-07-28T00:02:47;99484.19;;;22.85;62.67
60087;BME280;45960;53.630;55.972;2023-07-28T00:03:47;99492.63;;;22.90;62.67
60087;BME280;45960;53.630;55.972;2023-07-28T00:04:48;99487.16;;;22.90;62.57
60087;BME280;45960;53.630;55.972;2023-07-28T00:05:50;99489.91;;;22.90;62.82
60087;BME280;45960;53.630;55.972;2023-07-28T00:06:51;99483.81;;;22.88;62.81
60087;BME280;45960;53.630;55.972;2023-07-28T00:07:52;99473.47;;;22.77;62.77
60087;BME280;45960;53.630;55.972;2023-07-28T00:08:53;99483.75;;;22.82;62.69
60087;BME280;45960;53.630;55.972;2023-07-28T00:09:54;99485.00;;;22.79;62.96
60087;BME280;45960;53.630;55.972;2023-07-28T00:10:55;99491.75;;;22.83;62.85
60087;BME280;45960;53.630;55.972;2023-07-28T00:12:00;99486.69;;;22.80;62.63
60087;BME280;45960;53.630;55.972;2023-07-28T00:13:01;99492.16;;;22.80;62.58
60087;BME280;45960;53.630;55.972;2023-07-28T00:14:03;99486.69;;;22.80;62.64
60087;BME280;45960;53.630;55.972;2023-07-28T00:15:04;99487.09;;;22.77;62.70
60087;BME280;45960;53.630;55.972;2023-07-28T00:16:06;99492.56;;;22.77;63.03
60087;BME280;45960;53.630;55.972;2023-07-28T00:17:08;99487.47;;;22.74;63.17
60087;BME280;45960;53.630;55.972;2023-07-28T00:18:09;99488.53;;;22.73;63.22
60087;BME280;45960;53.630;55.972;2023-07-28T00:19:10;99493.97;;;22.73;63.28
60087;BME280;45960;53.630;55.972;2023-07-28T00:20:11;99495.03;;;22.72;63.20
60087;BME280;45960;53.630;55.972;2023-07-28T00:21:12;99491.47;;;22.71;63.25
60087;BME280;45960;53.630;55.972;2023-07-28T00:22:13;99488.91;;;22.70;63.29
60087;BME280;45960;53.630;55.972;2023-07-28T00:23:14;99483.66;;;22.68;63.25
60087;BME280;45960;53.630;55.972;2023-07-28T00:24:15;99488.28;;;22.68;63.47
60087;BME280;45960;53.630;55.972;2023-07-28T00:25:16;99483.66;;;22.68;63.23
60087;BME280;45960;53.630;55.972;2023-07-28T00:26:18;99488.28;;;22.68;63.15
60087;BME280;45960;53.630;55.972;2023-07-28T00:27:19;99484.06;;;22.65;63.38
60087;BME280;45960;53.630;55.972;2023-07-28T00:28:20;99476.09;;;22.64;63.34
60087;BME280;45960;53.630;55.972;2023-07-28T00:29:21;99483.88;;;22.67;63.28
60087;BME280;45960;53.630;55.972;2023-07-28T00:30:23;99484.91;;;22.66;63.41
60087;BME280;45960;53.630;55.972;2023-07-28T00:31:24;99490.34;;;22.66;63.36
60087;BME280;45960;53.630;55.972;2023-07-28T00:32:25;99483.22;;;22.65;63.29
60087;BME280;45960;53.630;55.972;2023-07-28T00:33:26;99492.44;;;22.64;63.49
60087;BME280;45960;53.630;55.972;2023-07-28T00:34:27;99485.69;;;22.60;63.55
60087;BME280;45960;53.630;55.972;2023-07-28T00:35:28;99489.09;;;22.68;63.18
60087;BME280;45960;53.630;55.972;2023-07-28T00:36:30;99491.28;;;22.79;62.92
60087;BME280;45960;53.630;55.972;2023-07-28T00:37:32;99486.56;;;22.88;62.64
60087;BME280;45960;53.630;55.972;2023-07-28T00:38:33;99500.66;;;22.98;62.15
60087;BME280;45960;53.630;55.972;2023-07-28T00:39:34;99490.66;;;23.06;62.04
60087;BME280;45960;53.630;55.972;2023-07-28T00:40:35;99497.38;;;23.10;61.98
60087;BME280;45960;53.630;55.972;2023-07-28T00:41:36;99478.06;;;23.05;61.93
60087;BME280;45960;53.630;55.972;2023-07-28T00:42:37;99499.94;;;23.18;61.76
60087;BME280;45960;53.630;55.972;2023-07-28T00:43:38;99508.78;;;23.20;61.73
60087;BME280;45960;53.630;55.972;2023-07-28T00:44:39;99503.09;;;23.21;61.52
60087;BME280;45960;53.630;55.972;2023-07-28T00:45:40;99505.66;;;23.23;61.71
60087;BME280;45960;53.630;55.972;2023-07-28T00:46:41;99504.59;;;23.24;61.64
60087;BME280;45960;53.630;55.972;2023-07-28T00:47:43;99505.25;;;23.26;61.70
60087;BME280;45960;53.630;55.972;2023-07-28T00:48:44;99510.50;;;23.28;61.43
60087;BME280;45960;53.630;55.972;2023-07-28T00:49:46;99497.91;;;23.27;61.42
60087;BME280;45960;53.630;55.972;2023-07-28T00:50:48;99506.72;;;23.29;61.77
60087;BME280;45960;53.630;55.972;2023-07-28T00:51:49;99507.56;;;23.29;61.51
60087;BME280;45960;53.630;55.972;2023-07-28T00:52:51;99477.50;;;23.16;61.68
60087;BME280;45960;53.630;55.972;2023-07-28T00:53:52;99502.53;;;23.33;61.67
60087;BME280;45960;53.630;55.972;2023-07-28T00:54:54;99503.16;;;23.28;61.61
60087;BME280;45960;53.630;55.972;2023-07-28T00:55:55;99507.63;;;23.36;61.27
60087;BME280;45960;53.630;55.972;2023-07-28T00:56:56;99511.78;;;23.38;61.34
60087;BME280;45960;53.630;55.972;2023-07-28T00:57:58;99516.00;;;23.41;61.37
60087;BME280;45960;53.630;55.972;2023-07-28T00:58:59;99514.75;;;23.43;60.98
60087;BME280;45960;53.630;55.972;2023-07-28T01:00:01;99516.66;;;23.43;61.25
60087;BME280;45960;53.630;55.972;2023-07-28T01:01:04;99521.91;;;23.44;61.25
60087;BME280;45960;53.630;55.972;2023-07-28T01:02:05;99527.97;;;23.46;61.27
60087;BME280;45960;53.630;55.972;2023-07-28T01:03:06;99512.59;;;23.32;61.16
60087;BME280;45960;53.630;55.972;2023-07-28T01:04:08;99523.19;;;23.49;61.18
60087;BME280;45960;53.630;55.972;2023-07-28T01:05:09;99532.00;;;23.51;61.08
60087;BME280;45960;53.630;55.972;2023-07-28T01:06:20;99534.72;;;23.51;61.28
60087;BME280;45960;53.630;55.972;2023-07-28T01:07:47;99529.28;;;23.51;61.24
60087;BME280;45960;53.630;55.972;2023-07-28T01:10:24;99532.00;;;23.51;61.02
60087;BME280;45960;53.630;55.972;2023-07-28T01:11:28;99526.16;;;23.54;60.91
60087;BME280;45960;53.630;55.972;2023-07-28T01:12:30;99533.28;;;23.55;60.71
60087;BME280;45960;53.630;55.972;2023-07-28T01:13:31;99537.69;;;23.56;60.66
60087;BME280;45960;53.630;55.972;2023-07-28T01:14:32;99543.78;;;23.58;60.50
60087;BME280;45960;53.630;55.972;2023-07-28T01:15:33;99541.69;;;23.60;60.36
60087;BME280;45960;53.630;55.972;2023-07-28T01:16:34;99540.25;;;23.64;60.46
60087;BME280;45960;53.630;55.972;2023-07-28T01:17:35;99537.13;;;23.67;60.46
60087;BME280;45960;53.630;55.972;2023-07-28T01:18:36;99543.19;;;23.69;60.70
60087;BME280;45960;53.630;55.972;2023-07-28T01:19:37;99526.22;;;23.67;60.60
60087;BME280;45960;53.630;55.972;2023-07-28T01:20:39;99534.25;;;23.75;60.59
60087;BME280;45960;53.630;55.972;2023-07-28T01:21:40;99539.72;;;23.82;60.61
60087;BME280;45960;53.630;55.972;2023-07-28T01:23:19;99535.53;;;23.86;60.32
60087;BME280;45960;53.630;55.972;2023-07-28T01:25:43;99543.56;;;24.01;60.09
60087;BME280;45960;53.630;55.972;2023-07-28T01:26:48;99545.88;;;24.04;59.91
60087;BME280;45960;53.630;55.972;2023-07-28T01:27:51;99537.94;;;24.09;59.83
60087;BME280;45960;53.630;55.972;2023-07-28T01:28:54;99546.94;;;24.16;59.87
60087;BME280;45960;53.630;55.972;2023-07-28T01:29:55;99543.63;;;24.27;59.48
60087;BME280;45960;53.630;55.972;2023-07-28T01:30:57;99539.88;;;24.28;59.75
60087;BME280;45960;53.630;55.972;2023-07-28T01:31:59;99545.31;;;24.28;59.97
60087;BME280;45960;53.630;55.972;2023-07-28T01:33:00;99542.78;;;24.33;59.86
60087;BME280;45960;53.630;55.972;2023-07-28T01:34:01;99548.25;;;24.33;59.71
60087;BME280;45960;53.630;55.972;2023-07-28T01:35:03;99544.94;;;24.45;59.56
60087;BME280;45960;53.630;55.972;2023-07-28T01:36:04;99547.47;;;24.53;59.35
60087;BME280;45960;53.630;55.972;2023-07-28T01:37:05;99544.94;;;24.58;59.49
60087;BME280;45960;53.630;55.972;2023-07-28T01:38:06;99526.69;;;24.52;59.41
60087;BME280;45960;53.630;55.972;2023-07-28T01:39:07;99542.44;;;24.63;59.33
60087;BME280;45960;53.630;55.972;2023-07-28T01:40:09;99540.97;;;24.67;59.15
60087;BME280;45960;53.630;55.972;2023-07-28T01:41:10;99537.19;;;24.68;59.08
60087;BME280;45960;53.630;55.972;2023-07-28T01:42:11;99538.47;;;24.59;58.98
60087;BME280;45960;53.630;55.972;2023-07-28T01:43:12;99536.78;;;24.71;58.87
60087;BME280;45960;53.630;55.972;2023-07-28T01:44:13;99526.47;;;24.80;58.63
60087;BME280;45960;53.630;55.972;2023-07-28T01:45:14;99529.81;;;24.89;58.05
60087;BME280;45960;53.630;55.972;2023-07-28T01:46:15;99537.81;;;24.90;57.28
60087;BME280;45960;53.630;55.972;2023-07-28T01:47:16;99539.47;;;24.98;57.36
60087;BME280;45960;53.630;55.972;2023-07-28T01:48:17;99538.66;;;25.04;57.27
60087;BME280;45960;53.630;55.972;2023-07-28T01:49:18;99536.97;;;25.10;56.97
60087;BME280;45960;53.630;55.972;2023-07-28T01:50:19;99542.44;;;25.16;56.79
60087;BME280;45960;53.630;55.972;2023-07-28T01:51:20;99545.38;;;25.21;56.43
60087;BME280;45960;53.630;55.972;2023-07-28T01:52:21;99540.31;;;25.25;56.24
60087;BME280;45960;53.630;55.972;2023-07-28T01:53:23;99539.69;;;25.30;55.86
60087;BME280;45960;53.630;55.972;2023-07-28T01:54:24;99541.75;;;25.34;55.38
60087;BME280;45960;53.630;55.972;2023-07-28T01:55:26;99540.28;;;25.38;55.26
60087;BME280;45960;53.630;55.972;2023-07-28T01:56:27;99544.25;;;25.42;55.38
60087;BME280;45960;53.630;55.972;2023-07-28T01:57:32;99538.16;;;25.47;55.23
60087;BME280;45960;53.630;55.972;2023-07-28T01:58:33;99550.34;;;25.51;55.15
60087;BME280;45960;53.630;55.972;2023-07-28T01:59:35;99532.69;;;25.47;54.46
60087;BME280;45960;53.630;55.972;2023-07-28T02:00:36;99544.44;;;25.54;54.53
60087;BME280;45960;53.630;55.972;2023-07-28T02:01:37;99547.78;;;25.56;54.38
60087;BME280;45960;53.630;55.972;2023-07-28T02:02:38;99517.16;;;25.41;54.04
60087;BME280;45960;53.630;55.972;2023-07-28T02:03:39;99538.13;;;25.60;54.26
60087;BME280;45960;53.630;55.972;2023-07-28T02:04:40;99552.00;;;25.65;53.78
60087;BME280;45960;53.630;55.972;2023-07-28T02:05:41;99549.47;;;25.64;53.96
60087;BME280;45960;53.630;55.972;2023-07-28T02:06:42;99548.63;;;25.63;53.59
60087;BME280;45960;53.630;55.972;2023-07-28T02:07:43;99551.56;;;25.68;53.49
60087;BME280;45960;53.630;55.972;2023-07-28T02:08:44;99551.97;;;25.72;53.45
60087;BME280;45960;53.630;55.972;2023-07-28T02:09:45;99548.16;;;25.73;53.34
60087;BME280;45960;53.630;55.972;2023-07-28T02:10:46;99550.25;;;25.78;53.45
60087;BME280;45960;53.630;55.972;2023-07-28T02:11:48;99551.09;;;25.78;53.35
60087;BME280;45960;53.630;55.972;2023-07-28T02:12:49;99552.34;;;25.76;53.10
60087;BME280;45960;53.630;55.972;2023-07-28T02:13:52;99548.16;;;25.80;52.96
60087;BME280;45960;53.630;55.972;2023-07-28T02:14:53;99535.31;;;25.74;53.12
60087;BME280;45960;53.630;55.972;2023-07-28T02:15:54;99551.94;;;25.85;52.80
60087;BME280;45960;53.630;55.972;2023-07-28T02:16:55;99556.16;;;25.88;52.98
60087;BME280;45960;53.630;55.972;2023-07-28T02:18:16;99543.94;;;25.84;52.77
60087;BME280;45960;53.630;55.972;2023-07-28T02:19:19;99551.47;;;25.95;52.52
60087;BME280;45960;53.630;55.972;2023-07-28T02:20:20;99556.50;;;25.98;52.90
60087;BME280;45960;53.630;55.972;2023-07-28T02:21:21;99557.75;;;26.02;52.77
60087;BME280;45960;53.630;55.972;2023-07-28T02:22:22;99559.88;;;26.00;52.57
60087;BME280;45960;53.630;55.972;2023-07-28T02:23:23;99560.06;;;25.99;52.66
60087;BME280;45960;53.630;55.972;2023-07-28T02:24:24;99560.25;;;26.04;52.69
60087;BME280;45960;53.630;55.972;2023-07-28T02:25:25;99555.19;;;26.07;52.75
60087;BME280;45960;53.630;55.972;2023-07-28T02:26:26;99556.00;;;26.15;52.60
60087;BME280;45960;53.630;55.972;2023-07-28T02:27:28;99560.59;;;26.21;52.37
60087;BME280;45960;53.630;55.972;2023-07-28T02:28:30;99559.31;;;26.23;51.91
60087;BME280;45960;53.630;55.972;2023-07-28T02:29:31;99558.88;;;26.26;52.29
60087;BME280;45960;53.630;55.972;2023-07-28T02:30:32;99561.84;;;26.25;52.10
60087;BME280;45960;53.630;55.972;2023-07-28T02:31:33;99556.81;;;26.22;52.25
60087;BME280;45960;53.630;55.972;2023-07-28T02:32:35;99554.66;;;26.24;52.36
60087;BME280;45960;53.630;55.972;2023-07-28T02:33:36;99570.66;;;26.27;52.75
60087;BME280;45960;53.630;55.972;2023-07-28T02:34:37;99565.38;;;26.32;53.21
60087;BME280;45960;53.630;55.972;2023-07-28T02:35:38;99563.88;;;26.36;53.23
60087;BME280;45960;53.630;55.972;2023-07-28T02:36:39;99559.63;;;26.40;53.02
60087;BME280;45960;53.630;55.972;2023-07-28T02:37:40;99557.50;;;26.42;53.14
60087;BME280;45960;53.630;55.972;2023-07-28T02:38:42;99565.50;;;26.50;52.84
60087;BME280;45960;53.630;55.972;2023-07-28T02:39:43;99559.78;;;26.52;52.86
60087;BME280;45960;53.630;55.972;2023-07-28T02:40:44;99562.94;;;26.55;52.80
60087;BME280;45960;53.630;55.972;2023-07-28T02:41:45;99555.94;;;26.60;52.33
60087;BME280;45960;53.630;55.972;2023-07-28T02:42:46;99562.88;;;26.62;52.76
60087;BME280;45960;53.630;55.972;2023-07-28T02:43:47;99560.75;;;26.64;52.32
60087;BME280;45960;53.630;55.972;2023-07-28T02:44:49;99567.69;;;26.67;52.15
60087;BME280;45960;53.630;55.972;2023-07-28T02:45:54;99537.44;;;26.48;51.89
60087;BME280;45960;53.630;55.972;2023-07-28T02:46:55;99564.97;;;26.67;52.04
60087;BME280;45960;53.630;55.972;2023-07-28T02:47:56;99561.78;;;26.70;51.52
60087;BME280;45960;53.630;55.972;2023-07-28T02:48:58;99563.69;;;26.69;51.31
60087;BME280;45960;53.630;55.972;2023-07-28T02:49:59;99564.06;;;26.73;51.87
60087;BME280;45960;53.630;55.972;2023-07-28T02:51:00;99560.25;;;26.74;51.77
60087;BME280;45960;53.630;55.972;2023-07-28T02:52:02;99554.31;;;26.77;51.72
60087;BME280;45960;53.630;55.972;2023-07-28T02:53:04;99557.69;;;26.79;51.93
60087;BME280;45960;53.630;55.972;2023-07-28T02:54:05;99561.88;;;26.82;51.98
60087;BME280;45960;53.630;55.972;2023-07-28T02:55:07;99561.06;;;26.81;51.94
60087;BME280;45960;53.630;55.972;2023-07-28T02:56:08;99564.41;;;26.83;51.75
60087;BME280;45960;53.630;55.972;2023-07-28T02:57:09;99565.47;;;26.82;51.95
60087;BME280;45960;53.630;55.972;2023-07-28T02:58:12;99561.53;;;26.71;51.53
60087;BME280;45960;53.630;55.972;2023-07-28T02:59:13;99566.16;;;26.77;51.43
60087;BME280;45960;53.630;55.972;2023-07-28T03:00:14;99564.06;;;26.73;51.32
60087;BME280;45960;53.630;55.972;2023-07-28T03:01:15;99566.56;;;26.74;51.17
60087;BME280;45960;53.630;55.972;2023-07-28T03:02:18;99572.91;;;26.75;51.72
60087;BME280;45960;53.630;55.972;2023-07-28T03:03:19;99559.03;;;26.70;51.51
60087;BME280;45960;53.630;55.972;2023-07-28T03:04:20;99566.19;;;26.71;51.69
60087;BME280;45960;53.630;55.972;2023-07-28T03:05:42;99559.50;;;26.67;51.51
60087;BME280;45960;53.630;55.972;2023-07-28T03:06:59;99570.03;;;26.63;51.90
60087;BME280;45960;53.630;55.972;2023-07-28T03:08:00;99558.22;;;26.63;51.91
60087;BME280;45960;53.630;55.972;2023-07-28T03:09:01;99577.53;;;26.74;51.65
60087;BME280;45960;53.630;55.972;2023-07-28T03:10:22;99577.94;;;26.78;51.92
60087;BME280;45960;53.630;55.972;2023-07-28T03:11:23;99562.34;;;26.78;52.03
60087;BME280;45960;53.630;55.972;2023-07-28T03:12:24;99577.44;;;26.88;52.04
60087;BME280;45960;53.630;55.972;2023-07-28T03:13:26;99579.50;;;26.92;51.58
60087;BME280;45960;53.630;55.972;2023-07-28T03:14:26;99573.56;;;26.95;51.36
60087;BME280;45960;53.630;55.972;2023-07-28T03:15:29;99575.66;;;27.00;51.66
60087;BME280;45960;53.630;55.972;2023-07-28T03:16:30;99581.53;;;27.04;51.58
60087;BME280;45960;53.630;55.972;2023-07-28T03:17:31;99575.59;;;27.07;51.57
60087;BME280;45960;53.630;55.972;2023-07-28T03:18:32;99575.97;;;27.10;51.69
60087;BME280;45960;53.630;55.972;2023-07-28T03:19:33;99572.78;;;27.13;52.17
60087;BME280;45960;53.630;55.972;2023-07-28T03:20:34;99584.38;;;27.15;52.03
60087;BME280;45960;53.630;55.972;2023-07-28T03:21:35;99575.97;;;27.17;51.74
60087;BME280;45960;53.630;55.972;2023-07-28T03:22:36;99574.63;;;27.19;51.51
60087;BME280;45960;53.630;55.972;2023-07-28T03:23:37;99577.16;;;27.21;51.32
60087;BME280;45960;53.630;55.972;2023-07-28T03:24:38;99578.63;;;27.23;51.14
60087;BME280;45960;53.630;55.972;2023-07-28T03:25:39;99574.59;;;27.26;51.40
60087;BME280;45960;53.630;55.972;2023-07-28T03:26:40;99581.28;;;27.30;51.55
60087;BME280;45960;53.630;55.972;2023-07-28T03:27:41;99538.88;;;27.08;51.46
60087;BME280;45960;53.630;55.972;2023-07-28T03:28:42;99577.03;;;27.34;51.75
60087;BME280;45960;53.630;55.972;2023-07-28T03:29:44;99574.94;;;27.36;51.33
60087;BME280;45960;53.630;55.972;2023-07-28T03:30:46;99569.03;;;27.33;51.26
60087;BME280;45960;53.630;55.972;2023-07-28T03:31:48;99580.53;;;27.41;50.93
60087;BME280;45960;53.630;55.972;2023-07-28T03:32:51;99582.25;;;27.42;51.07
60087;BME280;45960;53.630;55.972;2023-07-28T03:33:52;99583.69;;;27.45;51.01
60087;BME280;45960;53.630;55.972;2023-07-28T03:34:53;99583.00;;;27.50;51.14
60087;BME280;45960;53.630;55.972;2023-07-28T03:35:55;99585.91;;;27.55;50.69
60087;BME280;45960;53.630;55.972;2023-07-28T03:36:57;99580.19;;;27.56;50.62
60087;BME280;45960;53.630;55.972;2023-07-28T03:37:58;99581.41;;;27.60;50.55
60087;BME280;45960;53.630;55.972;2023-07-28T03:38:59;99585.13;;;27.66;50.58
60087;BME280;45960;53.630;55.972;2023-07-28T03:40:00;99576.91;;;27.66;50.75
60087;BME280;45960;53.630;55.972;2023-07-28T03:41:11;99581.78;;;27.64;50.41
60087;BME280;45960;53.630;55.972;2023-07-28T03:42:12;99581.19;;;27.62;50.45
60087;BME280;45960;53.630;55.972;2023-07-28T03:43:23;99573.84;;;27.56;50.52
60087;BME280;45960;53.630;55.972;2023-07-28T03:44:24;99583.94;;;27.62;50.72
60087;BME280;45960;53.630;55.972;2023-07-28T03:45:25;99581.31;;;27.67;50.40
60087;BME280;45960;53.630;55.972;2023-07-28T03:46:26;99581.63;;;27.77;50.10
60087;BME280;45960;53.630;55.972;2023-07-28T03:47:27;99584.16;;;27.79;50.07
60087;BME280;45960;53.630;55.972;2023-07-28T03:48:28;99581.41;;;27.79;50.31
60087;BME280;45960;53.630;55.972;2023-07-28T03:49:30;99583.63;;;27.88;50.87
60087;BME280;45960;53.630;55.972;2023-07-28T03:50:31;99583.16;;;27.92;50.67
60087;BME280;45960;53.630;55.972;2023-07-28T03:51:32;99579.19;;;28.06;49.91
60087;BME280;45960;53.630;55.972;2023-07-28T03:52:33;99580.66;;;28.20;50.19
60087;BME280;45960;53.630;55.972;2023-07-28T03:53:35;99581.13;;;28.17;49.99
60087;BME280;45960;53.630;55.972;2023-07-28T03:54:36;99576.59;;;28.11;50.37
60087;BME280;45960;53.630;55.972;2023-07-28T03:55:37;99573.22;;;28.09;49.90
60087;BME280;45960;53.630;55.972;2023-07-28T03:56:38;99579.56;;;28.09;50.38
60087;BME280;45960;53.630;55.972;2023-07-28T03:57:39;99577.19;;;28.13;49.92
60087;BME280;45960;53.630;55.972;2023-07-28T03:58:40;99584.97;;;28.16;50.03
60087;BME280;45960;53.630;55.972;2023-07-28T03:59:41;99576.88;;;28.21;50.65
60087;BME280;45960;53.630;55.972;2023-07-28T04:00:42;99591.59;;;28.27;50.22
60087;BME280;45960;53.630;55.972;2023-07-28T04:01:43;99589.44;;;28.29;49.67
60087;BME280;45960;53.630;55.972;2023-07-28T04:02:44;99589.34;;;28.36;49.91
60087;BME280;45960;53.630;55.972;2023-07-28T04:03:45;99586.75;;;28.41;49.98
60087;BME280;45960;53.630;55.972;2023-07-28T04:04:47;99584.16;;;28.46;49.71
60087;BME280;45960;53.630;55.972;2023-07-28T04:05:48;99586.19;;;28.50;49.92
60087;BME280;45960;53.630;55.972;2023-07-28T04:06:49;99589.69;;;28.58;49.81
60087;BME280;45960;53.630;55.972;2023-07-28T04:07:59;99584.56;;;28.61;50.32
60087;BME280;45960;53.630;55.972;2023-07-28T04:09:00;99582.56;;;28.68;49.97
60087;BME280;45960;53.630;55.972;2023-07-28T04:10:01;99578.25;;;28.72;49.34
60087;BME280;45960;53.630;55.972;2023-07-28T04:11:02;99582.78;;;28.78;49.64
60087;BME280;45960;53.630;55.972;2023-07-28T04:12:04;99581.00;;;28.84;49.26
60087;BME280;45960;53.630;55.972;2023-07-28T04:13:05;99580.53;;;28.87;48.68
60087;BME280;45960;53.630;55.972;2023-07-28T04:14:06;99564.38;;;28.79;48.23
60087;BME280;45960;53.630;55.972;2023-07-28T04:15:08;99582.59;;;28.92;48.15
60087;BME280;45960;53.630;55.972;2023-07-28T04:16:09;99585.13;;;28.93;48.17
60087;BME280;45960;53.630;55.972;2023-07-28T04:17:10;99585.47;;;28.97;48.19
60087;BME280;45960;53.630;55.972;2023-07-28T04:18:12;99580.56;;;28.99;47.70
60087;BME280;45960;53.630;55.972;2023-07-28T04:19:13;99582.84;;;29.02;48.02
60087;BME280;45960;53.630;55.972;2023-07-28T04:20:14;99579.16;;;29.08;48.14
60087;BME280;45960;53.630;55.972;2023-07-28T04:21:15;99580.13;;;29.14;48.24
60087;BME280;45960;53.630;55.972;2023-07-28T04:22:16;99579.16;;;29.20;47.62
60087;BME280;45960;53.630;55.972;2023-07-28T04:23:22;99573.78;;;29.25;47.66
60087;BME280;45960;53.630;55.972;2023-07-28T04:24:24;99577.50;;;29.31;47.62
60087;BME280;45960;53.630;55.972;2023-07-28T04:25:26;99584.78;;;29.37;47.26
60087;BME280;45960;53.630;55.972;2023-07-28T04:26:27;99575.56;;;29.43;47.91
60087;BME280;45960;53.630;55.972;2023-07-28T04:27:33;99571.84;;;29.49;48.09
60087;BME280;45960;53.630;55.972;2023-07-28T04:28:37;99548.31;;;29.41;48.01
60087;BME280;45960;53.630;55.972;2023-07-28T04:29:38;99578.81;;;29.63;48.05
60087;BME280;45960;53.630;55.972;2023-07-28T04:30:42;99577.59;;;29.83;47.67
60087;BME280;45960;53.630;55.972;2023-07-28T04:31:51;99575.56;;;29.78;47.61
60087;BME280;45960;53.630;55.972;2023-07-28T04:33:00;99571.97;;;29.78;47.43
60087;BME280;45960;53.630;55.972;2023-07-28T04:34:08;99580.91;;;29.85;47.02
60087;BME280;45960;53.630;55.972;2023-07-28T04:35:30;99576.59;;;29.89;47.40
60087;BME280;45960;53.630;55.972;2023-07-28T04:36:47;99577.78;;;29.93;47.32
60087;BME280;45960;53.630;55.972;2023-07-28T04:37:51;99585.53;;;29.96;47.04
60087;BME280;45960;53.630;55.972;2023-07-28T04:39:02;99573.47;;;29.97;46.68
60087;BME280;45960;53.630;55.972;2023-07-28T04:40:04;99569.13;;;30.01;46.52
60087;BME280;45960;53.630;55.972;2023-07-28T04:41:10;99572.53;;;30.20;46.20
60087;BME280;45960;53.630;55.972;2023-07-28T04:42:22;99570.75;;;30.26;47.37
60087;BME280;45960;53.630;55.972;2023-07-28T04:43:24;99580.78;;;30.32;47.34
60087;BME280;45960;53.630;55.972;2023-07-28T04:44:28;99571.41;;;30.33;46.65
60087;BME280;45960;53.630;55.972;2023-07-28T04:45:34;99578.13;;;30.37;47.29
60087;BME280;45960;53.630;55.972;2023-07-28T04:46:40;99573.97;;;30.51;46.70
60087;BME280;45960;53.630;55.972;2023-07-28T04:47:46;99572.88;;;30.52;46.78
60087;BME280;45960;53.630;55.972;2023-07-28T04:48:48;99573.63;;;30.48;46.65
60087;BME280;45960;53.630;55.972;2023-07-28T04:50:07;99577.22;;;30.48;46.40
60087;BME280;45960;53.630;55.972;2023-07-28T04:51:34;99577.81;;;30.50;46.32
60087;BME280;45960;53.630;55.972;2023-07-28T04:52:53;99580.66;;;30.55;46.52
60087;BME280;45960;53.630;55.972;2023-07-28T04:54:11;99571.31;;;30.57;46.48
60087;BME280;45960;53.630;55.972;2023-07-28T04:55:12;99584.84;;;30.75;45.67
60087;BME280;45960;53.630;55.972;2023-07-28T04:56:13;99580.25;;;30.92;45.70
60087;BME280;45960;53.630;55.972;2023-07-28T04:57:14;99591.78;;;31.06;45.56
60087;BME280;45960;53.630;55.972;2023-07-28T04:58:15;99583.03;;;31.14;45.24
60087;BME280;45960;53.630;55.972;2023-07-28T04:59:21;99586.25;;;31.23;45.46
60087;BME280;45960;53.630;55.972;2023-07-28T05:00:22;99579.94;;;31.28;44.77
60087;BME280;45960;53.630;55.972;2023-07-28T05:01:24;99570.31;;;31.30;45.00
60087;BME280;45960;53.630;55.972;2023-07-28T05:02:25;99575.22;;;31.40;44.92
60087;BME280;45960;53.630;55.972;2023-07-28T05:03:27;99582.69;;;31.44;45.49
60087;BME280;45960;53.630;55.972;2023-07-28T05:04:32;99578.69;;;31.35;45.29
60087;BME280;45960;53.630;55.972;2023-07-28T05:05:33;99583.03;;;31.31;45.50
60087;BME280;45960;53.630;55.972;2023-07-28T05:06:34;99579.19;;;31.32;45.79
60087;BME280;45960;53.630;55.972;2023-07-28T05:07:35;99580.38;;;31.36;46.18
60087;BME280;45960;53.630;55.972;2023-07-28T05:08:37;99580.38;;;31.36;44.88
60087;BME280;45960;53.630;55.972;2023-07-28T05:09:38;99577.69;;;31.41;45.56
60087;BME280;45960;53.630;55.972;2023-07-28T05:10:41;99584.41;;;31.46;45.60
60087;BME280;45960;53.630;55.972;2023-07-28T05:11:43;99579.66;;;31.63;44.64
60087;BME280;45960;53.630;55.972;2023-07-28T05:12:44;99581.16;;;31.71;44.52
60087;BME280;45960;53.630;55.972;2023-07-28T05:13:45;99580.81;;;31.67;44.56
60087;BME280;45960;53.630;55.972;2023-07-28T05:14:46;99588.53;;;31.65;44.72
60087;BME280;45960;53.630;55.972;2023-07-28T05:15:50;99579.06;;;31.61;44.66
60087;BME280;45960;53.630;55.972;2023-07-28T05:17:02;99583.00;;;31.65;44.89
60087;BME280;45960;53.630;55.972;2023-07-28T05:18:10;99582.06;;;31.76;44.97
60087;BME280;45960;53.630;55.972;2023-07-28T05:19:16;99586.97;;;31.91;44.67
60087;BME280;45960;53.630;55.972;2023-07-28T05:20:25;99585.72;;;32.04;44.68
60087;BME280;45960;53.630;55.972;2023-07-28T05:21:47;99579.50;;;32.14;43.92
60087;BME280;45960;53.630;55.972;2023-07-28T05:22:49;99588.66;;;32.19;43.76
60087;BME280;45960;53.630;55.972;2023-07-28T05:23:51;99588.22;;;32.27;43.15
60087;BME280;45960;53.630;55.972;2023-07-28T05:24:52;99573.75;;;32.20;43.01
60087;BME280;45960;53.630;55.972;2023-07-28T05:25:54;99582.75;;;32.32;43.60
60087;BME280;45960;53.630;55.972;2023-07-28T05:26:55;99577.00;;;32.39;43.47
60087;BME280;45960;53.630;55.972;2023-07-28T05:27:56;99577.28;;;32.43;43.95
60087;BME280;45960;53.630;55.972;2023-07-28T05:28:57;99589.03;;;32.50;43.26
60087;BME280;45960;53.630;55.972;2023-07-28T05:29:59;99580.25;;;32.58;43.56
60087;BME280;45960;53.630;55.972;2023-07-28T05:31:05;99573.69;;;32.64;43.57